sensor_id;sensor_type;location;lat;lon;timestamp;P1;durP1;ratioP1;P2;durP2;ratioP2
18677;SDS011;9469;51.114;13.914;2023-11-19T00:02:31;12.10;;;9.17;;
18677;SDS011;9469;51.114;13.914;2023-11-19T00:07:39;14.17;;;9.50;;
18677;SDS011;9469;51.114;13.914;2023-11-19T00:12:48;16.30;;;11.50;;
18677;SDS011;9469;51.114;13.914;2023-11-19T00:17:54;16.00;;;11.90;;
18677;SDS011;9469;51.114;13.914;2023-11-19T00:23:05;15.90;;;11.70;;
18677;SDS011;9469;51.114;13.914;2023-11-19T00:28:10;20.27;;;12.33;;
18677;SDS011;9469;51.114;13.914;2023-11-19T00:33:15;14.50;;;12.07;;
18677;SDS011;9469;51.114;13.914;2023-11-19T00:38:26;17.90;;;12.10;;
18677;SDS011;9469;51.114;13.914;2023-11-19T00:43:31;16.20;;;12.03;;
18677;SDS011;9469;51.114;13.914;2023-11-19T00:48:36;14.27;;;10.97;;
18677;SDS011;9469;51.114;13.914;2023-11-19T00:53:44;17.13;;;11.90;;
18677;SDS011;9469;51.114;13.914;2023-11-19T00:58:49;17.63;;;12.07;;
18677;SDS011;9469;51.114;13.914;2023-11-19T01:03:54;16.77;;;11.67;;
18677;SDS011;9469;51.114;13.914;2023-11-19T01:09:02;15.07;;;11.00;;
18677;SDS011;9469;51.114;13.914;2023-11-19T01:14:07;13.33;;;10.70;;
18677;SDS011;9469;51.114;13.914;2023-11-19T01:19:12;15.17;;;11.57;;
18677;SDS011;9469;51.114;13.914;2023-11-19T01:24:21;15.03;;;11.23;;
18677;SDS011;9469;51.114;13.914;2023-11-19T01:29:30;13.73;;;10.03;;
18677;SDS011;9469;51.114;13.914;2023-11-19T01:34:35;17.27;;;10.67;;
18677;SDS011;9469;51.114;13.914;2023-11-19T01:39:45;13.33;;;9.47;;
18677;SDS011;9469;51.114;13.914;2023-11-19T01:45:00;11.43;;;10.03;;
18677;SDS011;9469;51.114;13.914;2023-11-19T01:50:09;14.33;;;9.33;;
18677;SDS011;9469;51.114;13.914;2023-11-19T01:55:17;12.40;;;9.10;;
18677;SDS011;9469;51.114;13.914;2023-11-19T02:00:22;10.93;;;8.90;;
18677;SDS011;9469;51.114;13.914;2023-11-19T02:05:28;10.00;;;7.73;;
18677;SDS011;9469;51.114;13.914;2023-11-19T02:10:36;7.63;;;6.67;;
18677;SDS011;9469;51.114;13.914;2023-11-19T02:15:42;7.73;;;6.33;;
18677;SDS011;9469;51.114;13.914;2023-11-19T02:20:48;8.17;;;6.23;;
18677;SDS011;9469;51.114;13.914;2023-11-19T02:26:09;7.97;;;6.97;;
18677;SDS011;9469;51.114;13.914;2023-11-19T02:31:22;7.57;;;6.77;;
18677;SDS011;9469;51.114;13.914;2023-11-19T02:36:29;6.50;;;5.70;;
18677;SDS011;9469;51.114;13.914;2023-11-19T02:41:35;6.43;;;5.83;;
18677;SDS011;9469;51.114;13.914;2023-11-19T02:46:44;6.13;;;5.30;;
18677;SDS011;9469;51.114;13.914;2023-11-19T02:51:50;6.07;;;5.23;;
18677;SDS011;9469;51.114;13.914;2023-11-19T02:56:55;6.20;;;5.07;;
18677;SDS011;9469;51.114;13.914;2023-11-19T03:02:05;6.47;;;4.67;;
18677;SDS011;9469;51.114;13.914;2023-11-19T03:07:13;6.80;;;4.73;;
18677;SDS011;9469;51.114;13.914;2023-11-19T03:12:19;5.23;;;4.73;;
18677;SDS011;9469;51.114;13.914;2023-11-19T03:17:27;4.17;;;3.77;;
18677;SDS011;9469;51.114;13.914;2023-11-19T03:22:33;4.10;;;3.70;;
18677;SDS011;9469;51.114;13.914;2023-11-19T03:27:38;4.33;;;3.77;;
18677;SDS011;9469;51.114;13.914;2023-11-19T03:32:46;4.90;;;4.37;;
18677;SDS011;9469;51.114;13.914;2023-11-19T03:37:52;5.07;;;4.33;;
18677;SDS011;9469;51.114;13.914;2023-11-19T03:42:58;4.50;;;4.00;;
18677;SDS011;9469;51.114;13.914;2023-11-19T03:48:08;5.70;;;4.70;;
18677;SDS011;9469;51.114;13.914;2023-11-19T03:53:13;5.37;;;4.47;;
18677;SDS011;9469;51.114;13.914;2023-11-19T03:58:20;4.83;;;4.37;;
18677;SDS011;9469;51.114;13.914;2023-11-19T04:03:28;6.27;;;4.50;;
18677;SDS011;9469;51.114;13.914;2023-11-19T04:08:33;6.00;;;5.37;;
18677;SDS011;9469;51.114;13.914;2023-11-19T04:13:38;6.47;;;5.00;;
18677;SDS011;9469;51.114;13.914;2023-11-19T04:18:46;6.83;;;4.97;;
18677;SDS011;9469;51.114;13.914;2023-11-19T04:23:51;6.10;;;5.17;;
18677;SDS011;9469;51.114;13.914;2023-11-19T04:28:56;7.53;;;5.57;;
18677;SDS011;9469;51.114;13.914;2023-11-19T04:34:04;7.33;;;5.97;;
18677;SDS011;9469;51.114;13.914;2023-11-19T04:39:09;6.77;;;5.70;;
18677;SDS011;9469;51.114;13.914;2023-11-19T04:44:17;8.63;;;5.97;;
18677;SDS011;9469;51.114;13.914;2023-11-19T04:49:25;7.07;;;5.87;;
18677;SDS011;9469;51.114;13.914;2023-11-19T04:54:32;7.80;;;6.17;;
18677;SDS011;9469;51.114;13.914;2023-11-19T04:59:37;7.97;;;6.67;;
18677;SDS011;9469;51.114;13.914;2023-11-19T05:04:46;8.80;;;7.60;;
18677;SDS011;9469;51.114;13.914;2023-11-19T05:09:51;9.93;;;7.60;;
18677;SDS011;9469;51.114;13.914;2023-11-19T05:14:56;8.30;;;7.10;;
18677;SDS011;9469;51.114;13.914;2023-11-19T05:20:05;10.13;;;7.93;;
18677;SDS011;9469;51.114;13.914;2023-11-19T05:25:15;10.13;;;7.70;;
18677;SDS011;9469;51.114;13.914;2023-11-19T05:30:22;9.47;;;7.53;;
18677;SDS011;9469;51.114;13.914;2023-11-19T05:35:30;10.17;;;7.63;;
18677;SDS011;9469;51.114;13.914;2023-11-19T05:40:35;9.93;;;8.13;;
18677;SDS011;9469;51.114;13.914;2023-11-19T05:45:41;9.10;;;7.40;;
18677;SDS011;9469;51.114;13.914;2023-11-19T05:50:49;8.57;;;7.17;;
18677;SDS011;9469;51.114;13.914;2023-11-19T05:55:54;9.07;;;7.03;;
18677;SDS011;9469;51.114;13.914;2023-11-19T06:01:05;8.30;;;6.67;;
18677;SDS011;9469;51.114;13.914;2023-11-19T06:06:14;8.47;;;6.50;;
18677;SDS011;9469;51.114;13.914;2023-11-19T06:11:19;6.87;;;5.43;;
18677;SDS011;9469;51.114;13.914;2023-11-19T06:16:24;6.20;;;5.30;;
18677;SDS011;9469;51.114;13.914;2023-11-19T06:21:32;6.40;;;5.70;;
18677;SDS011;9469;51.114;13.914;2023-11-19T06:26:38;6.33;;;5.63;;
18677;SDS011;9469;51.114;13.914;2023-11-19T06:31:43;6.37;;;5.70;;
18677;SDS011;9469;51.114;13.914;2023-11-19T06:36:53;5.87;;;5.27;;
18677;SDS011;9469;51.114;13.914;2023-11-19T06:41:58;6.00;;;5.37;;
18677;SDS011;9469;51.114;13.914;2023-11-19T06:47:03;8.20;;;4.93;;
18677;SDS011;9469;51.114;13.914;2023-11-19T06:52:11;4.80;;;4.37;;
18677;SDS011;9469;51.114;13.914;2023-11-19T06:57:16;4.57;;;4.10;;
18677;SDS011;9469;51.114;13.914;2023-11-19T07:02:22;4.20;;;3.80;;
18677;SDS011;9469;51.114;13.914;2023-11-19T07:07:31;3.67;;;3.37;;
18677;SDS011;9469;51.114;13.914;2023-11-19T07:12:37;4.07;;;3.67;;
18677;SDS011;9469;51.114;13.914;2023-11-19T07:17:43;5.67;;;4.10;;
18677;SDS011;9469;51.114;13.914;2023-11-19T07:23:05;4.30;;;3.63;;
18677;SDS011;9469;51.114;13.914;2023-11-19T07:28:11;4.17;;;3.77;;
18677;SDS011;9469;51.114;13.914;2023-11-19T07:33:16;4.13;;;3.67;;
18677;SDS011;9469;51.114;13.914;2023-11-19T07:38:24;4.80;;;3.40;;
18677;SDS011;9469;51.114;13.914;2023-11-19T07:43:29;4.83;;;3.93;;
18677;SDS011;9469;51.114;13.914;2023-11-19T07:48:35;5.73;;;4.73;;
18677;SDS011;9469;51.114;13.914;2023-11-19T07:53:42;4.73;;;4.33;;
18677;SDS011;9469;51.114;13.914;2023-11-19T07:58:48;4.67;;;4.17;;
18677;SDS011;9469;51.114;13.914;2023-11-19T08:03:53;4.53;;;4.13;;
18677;SDS011;9469;51.114;13.914;2023-11-19T08:09:04;4.20;;;3.40;;
18677;SDS011;9469;51.114;13.914;2023-11-19T08:14:16;4.37;;;3.97;;
18677;SDS011;9469;51.114;13.914;2023-11-19T08:19:30;4.47;;;4.03;;
18677;SDS011;9469;51.114;13.914;2023-11-19T08:24:41;3.37;;;3.00;;
18677;SDS011;9469;51.114;13.914;2023-11-19T08:29:46;3.70;;;3.40;;
18677;SDS011;9469;51.114;13.914;2023-11-19T08:34:51;3.33;;;2.87;;
18677;SDS011;9469;51.114;13.914;2023-11-19T08:40:00;3.80;;;3.30;;
18677;SDS011;9469;51.114;13.914;2023-11-19T08:45:06;4.17;;;3.27;;
18677;SDS011;9469;51.114;13.914;2023-11-19T08:50:14;3.17;;;2.90;;
18677;SDS011;9469;51.114;13.914;2023-11-19T08:55:22;5.80;;;3.30;;
18677;SDS011;9469;51.114;13.914;2023-11-19T09:00:28;3.47;;;3.10;;
18677;SDS011;9469;51.114;13.914;2023-11-19T09:05:34;4.50;;;3.60;;
18677;SDS011;9469;51.114;13.914;2023-11-19T09:10:43;2.40;;;2.20;;
18677;SDS011;9469;51.114;13.914;2023-11-19T09:15:48;1.63;;;1.40;;
18677;SDS011;9469;51.114;13.914;2023-11-19T09:20:53;1.40;;;1.30;;
18677;SDS011;9469;51.114;13.914;2023-11-19T09:26:00;2.70;;;1.80;;
18677;SDS011;9469;51.114;13.914;2023-11-19T09:31:12;2.37;;;1.47;;
18677;SDS011;9469;51.114;13.914;2023-11-19T09:36:18;2.70;;;1.40;;
18677;SDS011;9469;51.114;13.914;2023-11-19T09:41:28;2.57;;;1.27;;
18677;SDS011;9469;51.114;13.914;2023-11-19T09:46:34;3.13;;;1.33;;
18677;SDS011;9469;51.114;13.914;2023-11-19T09:51:44;1.90;;;1.27;;
18677;SDS011;9469;51.114;13.914;2023-11-19T09:56:52;3.37;;;1.63;;
18677;SDS011;9469;51.114;13.914;2023-11-19T10:02:01;2.13;;;1.53;;
18677;SDS011;9469;51.114;13.914;2023-11-19T10:07:11;3.77;;;2.00;;
18677;SDS011;9469;51.114;13.914;2023-11-19T10:12:19;3.83;;;2.50;;
18677;SDS011;9469;51.114;13.914;2023-11-19T10:17:27;1.87;;;1.10;;
18677;SDS011;9469;51.114;13.914;2023-11-19T10:22:36;6.83;;;1.47;;
18677;SDS011;9469;51.114;13.914;2023-11-19T10:27:44;4.43;;;1.50;;
18677;SDS011;9469;51.114;13.914;2023-11-19T10:33:04;3.47;;;1.80;;
18677;SDS011;9469;51.114;13.914;2023-11-19T10:38:13;3.53;;;1.23;;
18677;SDS011;9469;51.114;13.914;2023-11-19T10:43:22;3.23;;;1.27;;
18677;SDS011;9469;51.114;13.914;2023-11-19T10:48:28;2.10;;;1.63;;
18677;SDS011;9469;51.114;13.914;2023-11-19T10:53:33;1.40;;;1.10;;
18677;SDS011;9469;51.114;13.914;2023-11-19T10:58:44;3.20;;;1.37;;
18677;SDS011;9469;51.114;13.914;2023-11-19T11:03:50;4.07;;;1.70;;
18677;SDS011;9469;51.114;13.914;2023-11-19T11:08:58;2.47;;;1.13;;
18677;SDS011;9469;51.114;13.914;2023-11-19T11:14:09;7.13;;;1.57;;
18677;SDS011;9469;51.114;13.914;2023-11-19T11:19:16;1.87;;;1.20;;
18677;SDS011;9469;51.114;13.914;2023-11-19T11:24:30;4.47;;;1.47;;
18677;SDS011;9469;51.114;13.914;2023-11-19T11:30:04;6.13;;;1.20;;
18677;SDS011;9469;51.114;13.914;2023-11-19T11:35:19;1.53;;;1.30;;
18677;SDS011;9469;51.114;13.914;2023-11-19T11:40:36;2.27;;;0.90;;
18677;SDS011;9469;51.114;13.914;2023-11-19T11:45:44;1.93;;;1.00;;
18677;SDS011;9469;51.114;13.914;2023-11-19T11:50:53;5.67;;;1.70;;
18677;SDS011;9469;51.114;13.914;2023-11-19T11:56:01;8.10;;;1.60;;
18677;SDS011;9469;51.114;13.914;2023-11-19T12:01:14;4.20;;;1.20;;
18677;SDS011;9469;51.114;13.914;2023-11-19T12:06:22;4.80;;;1.67;;
18677;SDS011;9469;51.114;13.914;2023-11-19T12:11:28;3.73;;;1.43;;
18677;SDS011;9469;51.114;13.914;2023-11-19T12:16:37;2.33;;;0.97;;
18677;SDS011;9469;51.114;13.914;2023-11-19T12:21:42;5.40;;;1.67;;
18677;SDS011;9469;51.114;13.914;2023-11-19T12:26:47;4.57;;;1.30;;
18677;SDS011;9469;51.114;13.914;2023-11-19T12:31:58;5.10;;;1.60;;
18677;SDS011;9469;51.114;13.914;2023-11-19T12:37:07;5.97;;;2.10;;
18677;SDS011;9469;51.114;13.914;2023-11-19T12:42:13;5.53;;;1.93;;
18677;SDS011;9469;51.114;13.914;2023-11-19T12:47:21;4.37;;;1.73;;
18677;SDS011;9469;51.114;13.914;2023-11-19T12:52:26;8.80;;;2.00;;
18677;SDS011;9469;51.114;13.914;2023-11-19T12:57:35;8.33;;;2.20;;
18677;SDS011;9469;51.114;13.914;2023-11-19T13:02:47;9.47;;;2.40;;
18677;SDS011;9469;51.114;13.914;2023-11-19T13:07:58;10.70;;;2.70;;
18677;SDS011;9469;51.114;13.914;2023-11-19T13:13:05;7.17;;;2.37;;
18677;SDS011;9469;51.114;13.914;2023-11-19T13:18:15;9.83;;;2.50;;
18677;SDS011;9469;51.114;13.914;2023-11-19T13:23:21;4.10;;;2.43;;
18677;SDS011;9469;51.114;13.914;2023-11-19T13:28:26;6.43;;;2.17;;
18677;SDS011;9469;51.114;13.914;2023-11-19T13:33:34;7.13;;;2.20;;
18677;SDS011;9469;51.114;13.914;2023-11-19T13:38:39;10.77;;;3.00;;
18677;SDS011;9469;51.114;13.914;2023-11-19T13:43:46;12.23;;;3.40;;
18677;SDS011;9469;51.114;13.914;2023-11-19T13:48:54;9.60;;;2.70;;
18677;SDS011;9469;51.114;13.914;2023-11-19T13:53:59;11.30;;;2.43;;
18677;SDS011;9469;51.114;13.914;2023-11-19T13:59:04;10.07;;;2.30;;
18677;SDS011;9469;51.114;13.914;2023-11-19T14:04:14;6.73;;;2.47;;
18677;SDS011;9469;51.114;13.914;2023-11-19T14:09:20;13.50;;;2.70;;
18677;SDS011;9469;51.114;13.914;2023-11-19T14:14:26;10.17;;;2.20;;
18677;SDS011;9469;51.114;13.914;2023-11-19T14:19:37;12.07;;;2.50;;
18677;SDS011;9469;51.114;13.914;2023-11-19T14:24:44;10.60;;;2.80;;
18677;SDS011;9469;51.114;13.914;2023-11-19T14:29:50;6.23;;;2.30;;
18677;SDS011;9469;51.114;13.914;2023-11-19T14:34:58;9.37;;;2.50;;
18677;SDS011;9469;51.114;13.914;2023-11-19T14:40:08;14.20;;;3.10;;
18677;SDS011;9469;51.114;13.914;2023-11-19T14:45:13;16.73;;;3.20;;
18677;SDS011;9469;51.114;13.914;2023-11-19T14:50:24;12.57;;;3.20;;
18677;SDS011;9469;51.114;13.914;2023-11-19T14:55:30;15.30;;;3.10;;
18677;SDS011;9469;51.114;13.914;2023-11-19T15:00:35;15.87;;;3.43;;
18677;SDS011;9469;51.114;13.914;2023-11-19T15:05:43;14.60;;;3.10;;
18677;SDS011;9469;51.114;13.914;2023-11-19T15:10:48;16.80;;;3.30;;
18677;SDS011;9469;51.114;13.914;2023-11-19T15:15:53;16.40;;;3.60;;
18677;SDS011;9469;51.114;13.914;2023-11-19T15:21:01;12.00;;;2.60;;
18677;SDS011;9469;51.114;13.914;2023-11-19T15:26:06;7.00;;;2.70;;
18677;SDS011;9469;51.114;13.914;2023-11-19T15:31:12;16.80;;;3.23;;
18677;SDS011;9469;51.114;13.914;2023-11-19T15:36:20;9.63;;;3.00;;
18677;SDS011;9469;51.114;13.914;2023-11-19T15:41:26;12.33;;;2.77;;
18677;SDS011;9469;51.114;13.914;2023-11-19T15:46:32;10.90;;;2.70;;
18677;SDS011;9469;51.114;13.914;2023-11-19T15:51:40;15.67;;;2.40;;
18677;SDS011;9469;51.114;13.914;2023-11-19T15:56:47;13.97;;;3.03;;
18677;SDS011;9469;51.114;13.914;2023-11-19T16:01:52;10.80;;;2.30;;
18677;SDS011;9469;51.114;13.914;2023-11-19T16:07:00;11.40;;;3.13;;
18677;SDS011;9469;51.114;13.914;2023-11-19T16:12:05;13.20;;;2.60;;
18677;SDS011;9469;51.114;13.914;2023-11-19T16:17:11;14.87;;;2.73;;
18677;SDS011;9469;51.114;13.914;2023-11-19T16:22:18;15.13;;;2.97;;
18677;SDS011;9469;51.114;13.914;2023-11-19T16:27:25;13.13;;;3.00;;
18677;SDS011;9469;51.114;13.914;2023-11-19T16:32:30;9.33;;;2.83;;
18677;SDS011;9469;51.114;13.914;2023-11-19T16:37:38;10.77;;;2.93;;
18677;SDS011;9469;51.114;13.914;2023-11-19T16:42:44;11.23;;;3.20;;
18677;SDS011;9469;51.114;13.914;2023-11-19T16:47:50;13.00;;;3.47;;
18677;SDS011;9469;51.114;13.914;2023-11-19T16:53:01;8.50;;;3.00;;
18677;SDS011;9469;51.114;13.914;2023-11-19T16:58:06;10.90;;;2.90;;
18677;SDS011;9469;51.114;13.914;2023-11-19T17:03:11;11.43;;;2.80;;
18677;SDS011;9469;51.114;13.914;2023-11-19T17:08:19;14.20;;;2.60;;
18677;SDS011;9469;51.114;13.914;2023-11-19T17:13:25;12.77;;;3.23;;
18677;SDS011;9469;51.114;13.914;2023-11-19T17:18:31;9.83;;;2.90;;
18677;SDS011;9469;51.114;13.914;2023-11-19T17:23:38;11.20;;;2.70;;
18677;SDS011;9469;51.114;13.914;2023-11-19T17:28:44;10.17;;;2.20;;
18677;SDS011;9469;51.114;13.914;2023-11-19T17:33:49;8.30;;;2.37;;
18677;SDS011;9469;51.114;13.914;2023-11-19T17:38:57;7.87;;;3.27;;
18677;SDS011;9469;51.114;13.914;2023-11-19T17:44:05;7.13;;;2.87;;
18677;SDS011;9469;51.114;13.914;2023-11-19T17:49:10;8.33;;;2.83;;
18677;SDS011;9469;51.114;13.914;2023-11-19T17:54:18;11.47;;;2.50;;
18677;SDS011;9469;51.114;13.914;2023-11-19T17:59:24;12.07;;;3.70;;
18677;SDS011;9469;51.114;13.914;2023-11-19T18:04:29;13.17;;;2.93;;
18677;SDS011;9469;51.114;13.914;2023-11-19T18:09:37;8.37;;;2.73;;
18677;SDS011;9469;51.114;13.914;2023-11-19T18:14:44;9.07;;;2.93;;
18677;SDS011;9469;51.114;13.914;2023-11-19T18:19:52;12.83;;;2.40;;
18677;SDS011;9469;51.114;13.914;2023-11-19T18:25:00;9.03;;;2.57;;
18677;SDS011;9469;51.114;13.914;2023-11-19T18:30:12;14.07;;;3.60;;
18677;SDS011;9469;51.114;13.914;2023-11-19T18:35:23;12.00;;;2.50;;
18677;SDS011;9469;51.114;13.914;2023-11-19T18:40:31;12.13;;;3.63;;
18677;SDS011;9469;51.114;13.914;2023-11-19T18:45:36;12.07;;;2.53;;
18677;SDS011;9469;51.114;13.914;2023-11-19T18:50:41;11.73;;;3.03;;
18677;SDS011;9469;51.114;13.914;2023-11-19T18:55:52;12.67;;;2.73;;
18677;SDS011;9469;51.114;13.914;2023-11-19T19:00:58;11.80;;;3.30;;
18677;SDS011;9469;51.114;13.914;2023-11-19T19:06:05;8.27;;;3.03;;
18677;SDS011;9469;51.114;13.914;2023-11-19T19:11:14;9.27;;;2.67;;
18677;SDS011;9469;51.114;13.914;2023-11-19T19:16:20;9.53;;;2.63;;
18677;SDS011;9469;51.114;13.914;2023-11-19T19:21:26;12.37;;;2.47;;
18677;SDS011;9469;51.114;13.914;2023-11-19T19:26:38;13.30;;;3.13;;
18677;SDS011;9469;51.114;13.914;2023-11-19T19:31:44;8.10;;;2.70;;
18677;SDS011;9469;51.114;13.914;2023-11-19T19:36:51;11.23;;;2.43;;
18677;SDS011;9469;51.114;13.914;2023-11-19T19:42:02;6.50;;;2.60;;
18677;SDS011;9469;51.114;13.914;2023-11-19T19:47:14;9.40;;;3.00;;
18677;SDS011;9469;51.114;13.914;2023-11-19T19:52:20;9.37;;;2.50;;
18677;SDS011;9469;51.114;13.914;2023-11-19T19:57:44;11.33;;;3.13;;
18677;SDS011;9469;51.114;13.914;2023-11-19T20:02:55;8.70;;;2.47;;
18677;SDS011;9469;51.114;13.914;2023-11-19T20:08:00;13.83;;;2.43;;
18677;SDS011;9469;51.114;13.914;2023-11-19T20:13:08;8.77;;;2.70;;
18677;SDS011;9469;51.114;13.914;2023-11-19T20:18:20;11.30;;;2.43;;
18677;SDS011;9469;51.114;13.914;2023-11-19T20:23:30;8.00;;;2.57;;
18677;SDS011;9469;51.114;13.914;2023-11-19T20:28:38;9.40;;;2.73;;
18677;SDS011;9469;51.114;13.914;2023-11-19T20:33:43;7.73;;;2.70;;
18677;SDS011;9469;51.114;13.914;2023-11-19T20:38:49;8.40;;;2.40;;
18677;SDS011;9469;51.114;13.914;2023-11-19T20:43:58;9.03;;;2.87;;
18677;SDS011;9469;51.114;13.914;2023-11-19T20:49:03;14.77;;;2.90;;
18677;SDS011;9469;51.114;13.914;2023-11-19T20:54:10;8.73;;;2.70;;
18677;SDS011;9469;51.114;13.914;2023-11-19T20:59:18;8.23;;;2.03;;
18677;SDS011;9469;51.114;13.914;2023-11-19T21:04:23;10.20;;;2.07;;
18677;SDS011;9469;51.114;13.914;2023-11-19T21:09:28;13.40;;;2.60;;
18677;SDS011;9469;51.114;13.914;2023-11-19T21:14:36;8.60;;;2.13;;
18677;SDS011;9469;51.114;13.914;2023-11-19T21:19:43;11.43;;;3.27;;
18677;SDS011;9469;51.114;13.914;2023-11-19T21:24:48;13.60;;;3.63;;
18677;SDS011;9469;51.114;13.914;2023-11-19T21:29:57;8.67;;;2.17;;
18677;SDS011;9469;51.114;13.914;2023-11-19T21:35:06;8.67;;;2.30;;
18677;SDS011;9469;51.114;13.914;2023-11-19T21:40:12;9.03;;;2.37;;
18677;SDS011;9469;51.114;13.914;2023-11-19T21:45:22;12.50;;;2.30;;
18677;SDS011;9469;51.114;13.914;2023-11-19T21:50:28;10.33;;;2.27;;
18677;SDS011;9469;51.114;13.914;2023-11-19T21:55:34;8.63;;;2.43;;
18677;SDS011;9469;51.114;13.914;2023-11-19T22:00:44;9.37;;;1.97;;
18677;SDS011;9469;51.114;13.914;2023-11-19T22:05:49;5.23;;;2.27;;
18677;SDS011;9469;51.114;13.914;2023-11-19T22:10:55;9.10;;;3.00;;
18677;SDS011;9469;51.114;13.914;2023-11-19T22:16:03;6.93;;;2.67;;
18677;SDS011;9469;51.114;13.914;2023-11-19T22:21:09;6.80;;;2.00;;
18677;SDS011;9469;51.114;13.914;2023-11-19T22:26:14;6.30;;;2.20;;
18677;SDS011;9469;51.114;13.914;2023-11-19T22:31:23;6.57;;;1.97;;
18677;SDS011;9469;51.114;13.914;2023-11-19T22:36:28;5.67;;;1.57;;
18677;SDS011;9469;51.114;13.914;2023-11-19T22:41:35;9.87;;;2.40;;
18677;SDS011;9469;51.114;13.914;2023-11-19T22:46:43;9.97;;;1.77;;
18677;SDS011;9469;51.114;13.914;2023-11-19T22:51:48;7.90;;;2.30;;
18677;SDS011;9469;51.114;13.914;2023-11-19T22:56:53;10.63;;;2.63;;
18677;SDS011;9469;51.114;13.914;2023-11-19T23:02:01;9.60;;;2.80;;
18677;SDS011;9469;51.114;13.914;2023-11-19T23:07:08;9.83;;;2.57;;
18677;SDS011;9469;51.114;13.914;2023-11-19T23:12:13;8.17;;;2.73;;
18677;SDS011;9469;51.114;13.914;2023-11-19T23:17:21;10.17;;;2.30;;
18677;SDS011;9469;51.114;13.914;2023-11-19T23:22:28;10.13;;;1.97;;
18677;SDS011;9469;51.114;13.914;2023-11-19T23:27:33;6.97;;;1.73;;
18677;SDS011;9469;51.114;13.914;2023-11-19T23:32:42;10.90;;;2.33;;
18677;SDS011;9469;51.114;13.914;2023-11-19T23:37:47;7.47;;;2.20;;
18677;SDS011;9469;51.114;13.914;2023-11-19T23:42:52;9.97;;;2.17;;
18677;SDS011;9469;51.114;13.914;2023-11-19T23:48:01;9.43;;;2.27;;
18677;SDS011;9469;51.114;13.914;2023-11-19T23:53:06;7.23;;;2.20;;
18677;SDS011;9469;51.114;13.914;2023-11-19T23:58:13;9.43;;;2.30;;
